Accueil
METAR-TAF:

METAR-TAF

Aéroports :

Aéroport international de Cambridge

Cambridge, Angleterre

latitude: 52-12N, longitude: 000-11E, altitude: 15 m

Observation

Le bulletin a été fait il y a 1 heure et 21 minutes, à 16:50 UTC
Vent 12 kt de sud-ouest
Température 23°C
Humidité 57%
Pression 1014 hPa
Visibilité 10 km ou plus
Quelques nuages à une hauteur de 3200 ft
Nuages fragmentés à une hauteur de 4000 ft

METAR: EGSC 151650Z 23012KT 9999 FEW032 BKN040 23/14 Q1014

Heure: 19:11 (18:11 UTC)

Prévision

Le bulletin a été fait il y a 4 heures et 12 minutes, à 13:59 UTC
Prévision valable du 15 à 15 UTC au 15 à 19 UTC
Vent 14 kt de ouest/sud-ouest
Visibilité 10 km ou plus
Nuages épars à une hauteur de 4000 ft

TAF: EGSC 151359Z 1515/1519 24014KT 9999 SCT040

Observations et prévisions météorologiques de plus de 4000 aéroports (messages METAR et TAF).

Les stations disponibles sont représentées par des disques jaunes et rouges sur la carte.

Passer la souris dessus pour voir le nom de la station.

Cliquer dessus pour voir les observations et prévisions météorologiques.

Pour changer de carte: cliquez sur les boutons verts avec une croix noire pour zoomer, sur le bouton vert avec un tiret pour effectuer un zoom arrière, ou sur les flèches vertes pour les cartes adjacentes.


METAR-TAF: